TimePDT,TemperatureF,Dew PointF,Humidity,Sea Level PressureIn,VisibilityMPH,Wind Direction,Wind SpeedMPH,Gust SpeedMPH,PrecipitationIn,Events,Conditions,WindDirDegrees,DateUTC
12:00 AM,59.0,44.6,59,29.31,40.0,SE,10.4,28.8,N/A,,Partly Cloudy,130,2012-10-16 07:00:00
1:00 AM,59.0,44.6,59,29.30,40.0,SE,9.2,-,N/A,,Partly Cloudy,130,2012-10-16 08:00:00
2:00 AM,59.0,44.6,59,29.28,40.0,West,4.6,-,N/A,,Partly Cloudy,280,2012-10-16 09:00:00
2:40 AM,-9999,-9999,N/A,-9999,40.0,South,29.9,43.7,N/A,,Partly Cloudy,180,2012-10-16 09:40:00
3:00 AM,55.4,44.6,67,29.26,40.0,NW,13.8,-,N/A,,Partly Cloudy,310,2012-10-16 10:00:00
4:00 AM,57.2,41.0,55,29.30,40.0,SSW,4.6,-,N/A,,Partly Cloudy,200,2012-10-16 11:00:00
5:00 AM,58,37,34,29.34,37,West,5.8,,,,Scattered Clouds,260,2012-10-16 12:00:00
5:00 AM,57.2,37.4,48,29.34,40.0,WSW,6.9,-,N/A,,Partly Cloudy,250,2012-10-16 12:00:00
6:00 AM,59.0,35.6,42,29.38,40.0,West,16.1,-,N/A,,Mostly Cloudy,260,2012-10-16 13:00:00
6:11 AM,-9999,-9999,N/A,-9999,30.0,WNW,19.6,36.8,N/A,Rain,Light Rain Showers,290,2012-10-16 13:11:00
7:00 AM,50.0,44.6,82,29.45,30.0,NW,17.3,-,N/A,,Overcast,310,2012-10-16 14:00:00
8:00 AM,51.8,39.2,62,29.51,40.0,West,10.4,-,N/A,,Mostly Cloudy,270,2012-10-16 15:00:00
9:00 AM,53.6,39.2,58,29.58,40.0,West,15.0,-,N/A,,Mostly Cloudy,270,2012-10-16 16:00:00
10:00 AM,55.4,35.6,47,29.62,40.0,WNW,17.3,-,N/A,,Partly Cloudy,290,2012-10-16 17:00:00
11:00 AM,59,33,25,29.66,37,WNW,15.0,,,,Partly Cloudy,300,2012-10-16 18:00:00
11:00 AM,59.0,33.8,39,29.66,40.0,WNW,18.4,-,N/A,,Partly Cloudy,300,2012-10-16 18:00:00
12:00 PM,59.0,30.2,34,29.69,40.0,WNW,21.9,27.6,N/A,,Partly Cloudy,290,2012-10-16 19:00:00
1:00 PM,60.8,28.4,29,29.71,40.0,WNW,19.6,28.8,N/A,,Partly Cloudy,290,2012-10-16 20:00:00
2:00 PM,62.6,24.8,24,29.72,40.0,West,21.9,31.1,N/A,,Partly Cloudy,280,2012-10-16 21:00:00
3:00 PM,60.8,26.6,27,29.74,40.0,WNW,24.2,29.9,N/A,,Scattered Clouds,290,2012-10-16 22:00:00
4:00 PM,62.6,26.6,26,29.76,40.0,WNW,21.9,-,N/A,,Scattered Clouds,290,2012-10-16 23:00:00
5:00 PM,60,24,15,29.79,37,West,20.7,,,,Partly Cloudy,280,2012-10-17 00:00:00
5:00 PM,60.8,24.8,25,29.79,40.0,West,23.0,31.1,N/A,,Scattered Clouds,270,2012-10-17 00:00:00
6:00 PM,57.2,24.8,29,29.84,40.0,WSW,18.4,29.9,N/A,,Partly Cloudy,250,2012-10-17 01:00:00
7:00 PM,55.4,24.8,31,29.87,40.0,WSW,20.7,32.2,N/A,,Partly Cloudy,250,2012-10-17 02:00:00
8:00 PM,53.6,24.8,33,29.92,40.0,West,12.7,18.4,N/A,,Partly Cloudy,280,2012-10-17 03:00:00
9:00 PM,51.8,24.8,35,29.94,40.0,West,10.4,-,N/A,,Partly Cloudy,280,2012-10-17 04:00:00
10:00 PM,50.0,24.8,37,29.98,40.0,West,9.2,-,N/A,,Partly Cloudy,280,2012-10-17 05:00:00
11:00 PM,47,26,32,30.02,37,ESE,3.5,,,,Scattered Clouds,120,2012-10-17 06:00:00
11:00 PM,48.2,26.6,43,30.02,40.0,ESE,3.5,-,N/A,,Partly Cloudy,110,2012-10-17 06:00:00